Terminal Aerodrome Forecast
Issued by NWS

Current Version | Previous Version | Graphics & Text | Print | Product List | Glossary On
Versions: 1 2 3 4 5 6 7 8 9 10 11 12 13 14 15 16 17 18 19 20 21 22 23 24
000
FTUS41 KRLX 200200 AAA
TAFCKB
TAF AMD
KCKB 200220Z 2002/2024 14008G15KT P6SM SCT050
     FM200800 16007KT 6SM BR SCT050
     FM201400 18006KT P6SM SCT040
     FM201800 21008G15KT P6SM SCT045
     FM202300 18006KT P6SM SCT080=

USA.gov is the U.S. government's official web portal to all federal, state and local government web resources and services.